createdAt,value
2022-09-11T00:01:49.355Z,15.68
2022-09-11T00:04:16.908Z,15.65
2022-09-11T00:06:44.806Z,15.65
2022-09-11T00:09:12.308Z,15.63
2022-09-11T00:11:41.352Z,15.60
2022-09-11T00:14:11.253Z,15.57
2022-09-11T00:16:39.792Z,15.53
2022-09-11T00:19:08.496Z,15.52
2022-09-11T00:21:36.419Z,15.49
2022-09-11T00:24:04.645Z,15.46
2022-09-11T00:26:32.165Z,15.44
2022-09-11T00:29:01.890Z,15.42
2022-09-11T00:31:32.395Z,15.39
2022-09-11T00:34:00.676Z,15.36
2022-09-11T00:36:31.126Z,15.35
2022-09-11T00:38:59.339Z,15.33
2022-09-11T00:41:28.864Z,15.30
2022-09-11T00:44:01.294Z,15.27
2022-09-11T00:46:35.743Z,15.22
2022-09-11T00:49:04.564Z,15.20
2022-09-11T00:51:34.695Z,15.16
2022-09-11T00:54:03.827Z,15.14
2022-09-11T00:56:35.393Z,15.12
2022-09-11T00:59:03.865Z,15.10
2022-09-11T01:01:31.397Z,15.08
2022-09-11T01:04:01.640Z,15.05
2022-09-11T01:06:29.129Z,15.02
2022-09-11T01:08:59.137Z,14.99
2022-09-11T01:11:41.601Z,14.96
2022-09-11T01:14:12.774Z,14.92
2022-09-11T01:16:43.881Z,14.90
2022-09-11T01:19:20.589Z,14.86
2022-09-11T01:21:56.524Z,14.83
2022-09-11T01:24:32.305Z,14.81
2022-09-11T01:27:20.791Z,14.75
2022-09-11T01:29:52.098Z,14.73
2022-09-11T01:32:22.065Z,14.69
2022-09-11T01:34:52.727Z,14.64
2022-09-11T01:37:24.083Z,14.61
2022-09-11T01:39:57.221Z,14.59
2022-09-11T01:42:25.910Z,14.57
2022-09-11T01:44:57.695Z,14.57
2022-09-11T01:47:26.470Z,14.55
2022-09-11T01:49:57.318Z,14.54
2022-09-11T01:52:30.556Z,14.52
2022-09-11T01:55:02.256Z,14.47
2022-09-11T01:57:34.665Z,14.46
2022-09-11T02:00:07.355Z,14.42
2022-09-11T02:02:45.891Z,14.38
2022-09-11T02:05:17.075Z,14.36
2022-09-11T02:07:48.557Z,14.33
2022-09-11T02:10:18.166Z,14.30
2022-09-11T02:12:52.844Z,14.28
2022-09-11T02:15:26.008Z,14.26
2022-09-11T02:17:55.866Z,14.24
2022-09-11T02:20:28.560Z,14.21
2022-09-11T02:22:56.718Z,14.19
2022-09-11T02:25:24.800Z,14.17
2022-09-11T02:27:56.756Z,14.17
2022-09-11T02:30:25.644Z,14.14
2022-09-11T02:32:55.779Z,14.12
2022-09-11T02:35:25.088Z,14.09
2022-09-11T02:37:57.034Z,14.07
2022-09-11T02:40:32.806Z,14.06
2022-09-11T02:43:10.118Z,14.03
2022-09-11T02:45:48.789Z,14.00
2022-09-11T02:48:25.705Z,13.99
2022-09-11T02:50:59.798Z,13.98
2022-09-11T02:53:30.889Z,13.97
2022-09-11T02:56:02.588Z,13.96
2022-09-11T02:58:35.091Z,13.94
2022-09-11T03:01:04.446Z,13.90
2022-09-11T03:03:38.402Z,13.88
2022-09-11T03:06:06.196Z,13.86
2022-09-11T03:08:34.453Z,13.83
2022-09-11T03:11:02.207Z,13.82
2022-09-11T03:13:32.698Z,13.79
2022-09-11T03:16:01.498Z,13.78
2022-09-11T03:18:30.433Z,13.75
2022-09-11T03:20:57.979Z,13.73
2022-09-11T03:23:26.480Z,13.72
2022-09-11T03:25:54.913Z,13.71
2022-09-11T03:28:23.698Z,13.70
2022-09-11T03:30:52.764Z,13.69
2022-09-11T03:33:20.357Z,13.68
2022-09-11T03:35:49.366Z,13.68
2022-09-11T03:38:17.170Z,13.66
2022-09-11T03:40:44.804Z,13.65
2022-09-11T03:43:13.200Z,13.64
2022-09-11T03:45:40.733Z,13.62
2022-09-11T03:48:10.045Z,13.59
2022-09-11T03:50:37.888Z,13.57
2022-09-11T03:53:06.761Z,13.56
2022-09-11T03:55:35.075Z,13.53
2022-09-11T03:58:02.639Z,13.53
2022-09-11T04:00:30.273Z,13.51
2022-09-11T04:02:58.155Z,13.51
2022-09-11T04:05:32.970Z,13.49
2022-09-11T04:08:02.188Z,13.47
2022-09-11T04:10:32.983Z,13.44
2022-09-11T04:13:01.569Z,13.43
2022-09-11T04:15:29.146Z,13.41
2022-09-11T04:18:00.043Z,13.38
2022-09-11T04:20:29.697Z,13.38
2022-09-11T04:22:57.885Z,13.36
2022-09-11T04:25:25.520Z,13.34
2022-09-11T04:27:54.361Z,13.32
2022-09-11T04:30:22.299Z,13.29
2022-09-11T04:32:52.500Z,13.28
2022-09-11T04:35:21.499Z,13.27
2022-09-11T04:37:54.314Z,13.25
2022-09-11T04:40:21.918Z,13.25
2022-09-11T04:42:49.507Z,13.24
2022-09-11T04:45:18.897Z,13.21
2022-09-11T04:47:46.977Z,13.19
2022-09-11T04:50:14.622Z,13.17
2022-09-11T04:52:45.309Z,13.15
2022-09-11T04:55:12.848Z,13.12
2022-09-11T04:57:40.475Z,13.09
2022-09-11T05:00:10.865Z,13.08
2022-09-11T05:02:40.555Z,13.07
2022-09-11T05:05:09.121Z,13.04
2022-09-11T05:07:36.699Z,13.04
2022-09-11T05:10:06.030Z,13.04
2022-09-11T05:12:33.648Z,13.03
2022-09-11T05:15:01.156Z,13.01
2022-09-11T05:17:30.436Z,13.01
2022-09-11T05:19:59.323Z,13.01
2022-09-11T05:22:27.025Z,13.01
2022-09-11T05:24:57.464Z,13.00
2022-09-11T05:27:25.512Z,13.01
2022-09-11T05:29:53.633Z,13.01
2022-09-11T05:32:21.169Z,13.00
2022-09-11T05:34:49.880Z,13.00
2022-09-11T05:37:21.684Z,13.01
2022-09-11T05:39:49.583Z,13.02
2022-09-11T05:42:17.642Z,13.03
2022-09-11T05:44:52.203Z,13.04
2022-09-11T05:47:19.825Z,13.06
2022-09-11T05:49:50.655Z,13.09
2022-09-11T05:52:18.519Z,13.11
2022-09-11T05:54:47.530Z,13.14
2022-09-11T05:57:15.844Z,13.15
2022-09-11T05:59:44.112Z,13.17
2022-09-11T06:02:12.488Z,13.21
2022-09-11T06:04:44.851Z,13.26
2022-09-11T06:07:13.064Z,13.29
2022-09-11T06:09:42.708Z,13.35
2022-09-11T06:12:12.795Z,13.38
2022-09-11T06:14:44.447Z,13.43
2022-09-11T06:17:12.558Z,13.49
2022-09-11T06:19:40.400Z,13.55
2022-09-11T06:22:07.920Z,13.61
2022-09-11T06:24:40.025Z,13.66
2022-09-11T06:27:07.573Z,13.72
2022-09-11T06:29:39.437Z,13.78
2022-09-11T06:32:07.724Z,13.86
2022-09-11T06:34:35.665Z,13.94
2022-09-11T06:37:07.798Z,14.04
2022-09-11T06:39:35.533Z,14.14
2022-09-11T06:42:03.408Z,14.26
2022-09-11T06:44:35.063Z,14.35
2022-09-11T06:47:05.627Z,14.50
2022-09-11T06:49:35.586Z,14.78
2022-09-11T06:52:21.691Z,15.36
2022-09-11T06:55:02.159Z,16.18
2022-09-11T06:57:30.783Z,16.91
2022-09-11T06:59:58.508Z,17.69
2022-09-11T07:02:28.320Z,18.53
2022-09-11T07:04:56.047Z,19.31
2022-09-11T07:07:26.713Z,19.99
2022-09-11T07:09:54.831Z,20.65
2022-09-11T07:12:25.141Z,21.24
2022-09-11T07:14:52.877Z,21.81
2022-09-11T07:17:20.399Z,22.24
2022-09-11T07:19:52.444Z,22.71
2022-09-11T07:22:19.989Z,23.23
2022-09-11T07:24:49.409Z,23.72
2022-09-11T07:27:19.360Z,24.23
2022-09-11T07:29:47.776Z,24.70
2022-09-11T07:32:15.533Z,25.18
2022-09-11T07:34:43.716Z,25.63
2022-09-11T07:37:13.377Z,25.98
2022-09-11T07:39:41.715Z,26.32
2022-09-11T07:42:18.779Z,26.69
2022-09-11T07:44:47.289Z,27.05
2022-09-11T07:47:16.223Z,27.37
2022-09-11T07:49:48.018Z,27.65
2022-09-11T07:52:18.377Z,27.90
2022-09-11T07:54:52.144Z,28.17
2022-09-11T07:57:22.008Z,28.42
2022-09-11T07:59:51.568Z,28.54
2022-09-11T08:02:20.136Z,28.31
2022-09-11T08:04:48.030Z,27.91
2022-09-11T08:07:17.706Z,27.46
2022-09-11T08:09:45.533Z,27.10
2022-09-11T08:12:14.069Z,26.74
2022-09-11T08:14:42.023Z,26.38
2022-09-11T08:17:16.012Z,26.04
2022-09-11T08:19:43.625Z,25.73
2022-09-11T08:22:12.947Z,25.40
2022-09-11T08:24:45.939Z,25.16
2022-09-11T08:27:16.978Z,25.13
2022-09-11T08:29:45.867Z,25.37
2022-09-11T08:32:14.102Z,25.71
2022-09-11T08:34:42.206Z,25.91
2022-09-11T08:37:09.748Z,25.94
2022-09-11T08:39:38.434Z,25.90
2022-09-11T08:42:10.553Z,25.86
2022-09-11T08:44:42.458Z,25.78
2022-09-11T08:47:20.007Z,25.62
2022-09-11T08:49:54.901Z,25.41
2022-09-11T08:52:24.588Z,25.18
2022-09-11T08:54:56.053Z,25.08
2022-09-11T08:57:29.298Z,25.29
2022-09-11T09:00:06.994Z,25.71
2022-09-11T09:02:56.202Z,26.23
2022-09-11T09:05:29.273Z,26.81
2022-09-11T09:08:07.080Z,27.31
2022-09-11T09:10:40.901Z,27.81
2022-09-11T09:13:17.462Z,28.24
2022-09-11T09:15:48.926Z,28.53
2022-09-11T09:18:19.109Z,28.83
2022-09-11T09:20:51.377Z,29.14
2022-09-11T09:23:19.859Z,29.53
2022-09-11T09:25:48.990Z,29.90
2022-09-11T09:28:20.976Z,29.81
2022-09-11T09:30:51.885Z,29.47
2022-09-11T09:33:28.253Z,29.22
2022-09-11T09:35:57.053Z,28.93
2022-09-11T09:38:28.467Z,28.65
2022-09-11T09:41:03.391Z,28.33
2022-09-11T09:43:38.378Z,28.03
2022-09-11T09:46:11.408Z,27.82
2022-09-11T09:48:40.590Z,27.67
2022-09-11T09:51:12.561Z,27.52
2022-09-11T09:53:41.931Z,27.68
2022-09-11T09:56:14.110Z,28.01
2022-09-11T09:58:49.961Z,28.40
2022-09-11T10:01:47.792Z,28.84
2022-09-11T10:04:17.175Z,29.24
2022-09-11T10:06:45.964Z,29.38
2022-09-11T10:09:31.370Z,29.51
2022-09-11T10:12:02.629Z,29.74
2022-09-11T10:17:22.303Z,30.05
2022-09-11T10:19:50.913Z,30.30
2022-09-11T10:22:23.690Z,30.48
2022-09-11T10:24:53.641Z,30.62
2022-09-11T10:27:22.998Z,30.60
2022-09-11T10:29:54.342Z,30.71
2022-09-11T10:32:24.544Z,30.89
2022-09-11T10:34:53.276Z,31.01
2022-09-11T10:37:25.435Z,31.02
2022-09-11T10:39:54.014Z,31.06
2022-09-11T10:42:23.454Z,31.16
2022-09-11T10:44:52.348Z,31.25
2022-09-11T10:47:25.005Z,31.27
2022-09-11T10:50:11.911Z,31.31
2022-09-11T10:52:47.596Z,31.20
2022-09-11T10:55:17.439Z,30.96
2022-09-11T10:57:46.474Z,30.96
2022-09-11T11:00:17.058Z,31.01
2022-09-11T11:02:47.498Z,30.83
2022-09-11T11:05:20.747Z,30.76
2022-09-11T11:07:53.194Z,30.82
2022-09-11T11:10:25.994Z,30.83
2022-09-11T11:13:01.816Z,30.59
2022-09-11T11:15:38.670Z,30.56
2022-09-11T11:18:23.555Z,30.72
2022-09-11T11:21:00.065Z,30.65
2022-09-11T11:23:44.815Z,30.67
2022-09-11T11:26:17.814Z,30.76
2022-09-11T11:29:01.435Z,30.64
2022-09-11T11:31:40.330Z,30.62
2022-09-11T11:34:29.227Z,30.67
2022-09-11T11:37:02.144Z,30.80
2022-09-11T11:39:33.070Z,30.95
2022-09-11T11:42:08.097Z,31.03
2022-09-11T11:44:40.821Z,31.00
2022-09-11T11:47:10.792Z,30.97
2022-09-11T11:49:48.894Z,30.67
2022-09-11T11:52:24.981Z,30.34
2022-09-11T11:54:55.641Z,30.22
2022-09-11T11:57:26.596Z,30.28
2022-09-11T11:59:57.122Z,30.42
2022-09-11T12:02:27.970Z,30.45
2022-09-11T12:04:58.434Z,30.43
2022-09-11T12:07:28.258Z,30.44
2022-09-11T12:09:57.409Z,30.35
2022-09-11T12:12:26.528Z,30.19
2022-09-11T12:14:55.184Z,30.02
2022-09-11T12:17:26.349Z,29.92
2022-09-11T12:20:12.294Z,29.72
2022-09-11T12:22:42.310Z,29.72
2022-09-11T12:25:24.719Z,29.57
2022-09-11T12:27:53.594Z,29.28
2022-09-11T12:30:22.575Z,29.14
2022-09-11T12:32:51.218Z,29.10
2022-09-11T12:35:21.238Z,29.17
2022-09-11T12:37:54.322Z,29.23
2022-09-11T12:40:25.096Z,29.14
2022-09-11T12:43:00.933Z,29.04
2022-09-11T12:45:32.955Z,29.00
2022-09-11T12:48:07.861Z,28.99
2022-09-11T12:50:35.902Z,28.82
2022-09-11T12:53:05.648Z,28.76
2022-09-11T12:55:35.209Z,28.79
2022-09-11T12:58:04.558Z,28.79
2022-09-11T13:00:35.411Z,28.77
2022-09-11T13:03:04.291Z,28.71
2022-09-11T13:05:34.519Z,28.51
2022-09-11T13:08:05.212Z,28.31
2022-09-11T13:10:35.214Z,28.21
2022-09-11T13:13:28.287Z,28.03
2022-09-11T13:15:57.948Z,27.78
2022-09-11T13:18:29.821Z,27.61
2022-09-11T13:20:59.398Z,27.51
2022-09-11T13:23:27.413Z,27.48
2022-09-11T13:25:58.134Z,27.51
2022-09-11T13:28:27.749Z,27.46
2022-09-11T13:30:57.904Z,27.46
2022-09-11T13:33:29.035Z,27.47
2022-09-11T13:35:57.591Z,27.41
2022-09-11T13:38:28.381Z,27.18
2022-09-11T13:40:58.560Z,26.88
2022-09-11T13:43:30.643Z,26.82
2022-09-11T13:46:11.058Z,26.87
2022-09-11T13:48:39.196Z,26.91
2022-09-11T13:51:06.955Z,26.90
2022-09-11T13:53:36.408Z,26.88
2022-09-11T13:56:05.359Z,26.87
2022-09-11T13:58:35.789Z,26.85
2022-09-11T14:01:11.406Z,26.74
2022-09-11T14:03:39.895Z,26.62
2022-09-11T14:06:10.877Z,26.55
2022-09-11T14:08:40.246Z,26.38
2022-09-11T14:11:11.645Z,26.33
2022-09-11T14:13:42.933Z,26.31
2022-09-11T14:16:18.947Z,26.30
2022-09-11T14:18:48.202Z,26.30
2022-09-11T14:21:16.891Z,26.30
2022-09-11T14:23:45.624Z,26.30
2022-09-11T14:26:16.122Z,26.23
2022-09-11T14:28:50.344Z,26.16
2022-09-11T14:31:28.183Z,26.04
2022-09-11T14:34:03.780Z,25.83
2022-09-11T14:36:31.811Z,25.68
2022-09-11T14:38:59.421Z,25.57
2022-09-11T14:41:28.302Z,25.55
2022-09-11T14:43:56.490Z,25.52
2022-09-11T14:46:24.005Z,25.49
2022-09-11T14:48:51.598Z,25.41
2022-09-11T14:51:20.725Z,25.28
2022-09-11T14:53:48.247Z,25.11
2022-09-11T14:56:15.824Z,24.93
2022-09-11T14:58:44.706Z,24.81
2022-09-11T15:01:13.517Z,24.69
2022-09-11T15:03:41.150Z,24.54
2022-09-11T15:06:20.485Z,24.41
2022-09-11T15:08:48.234Z,24.25
2022-09-11T15:11:16.350Z,24.25
2022-09-11T15:14:11.007Z,24.32
2022-09-11T15:16:33.673Z,24.41
2022-09-11T15:19:01.239Z,24.41
2022-09-11T15:21:28.994Z,24.32
2022-09-11T15:23:56.526Z,24.32
2022-09-11T15:26:24.033Z,24.35
2022-09-11T15:28:53.311Z,24.36
2022-09-11T15:31:21.005Z,24.29
2022-09-11T15:33:50.793Z,24.22
2022-09-11T15:36:18.475Z,24.23
2022-09-11T15:38:51.442Z,24.19
2022-09-11T15:41:21.875Z,24.16
2022-09-11T15:43:50.508Z,24.13
2022-09-11T15:46:21.049Z,24.08
2022-09-11T15:48:49.273Z,23.99
2022-09-11T15:51:18.037Z,23.89
2022-09-11T15:53:45.595Z,23.82
2022-09-11T15:56:15.212Z,23.79
2022-09-11T15:58:44.421Z,23.71
2022-09-11T16:01:17.654Z,23.64
2022-09-11T16:03:50.218Z,23.58
2022-09-11T16:06:17.733Z,23.53
2022-09-11T16:08:45.205Z,23.40
2022-09-11T16:11:14.228Z,23.31
2022-09-11T16:13:41.791Z,23.29
2022-09-11T16:16:09.391Z,23.26
2022-09-11T16:18:38.422Z,23.19
2022-09-11T16:21:07.599Z,23.12
2022-09-11T16:23:35.750Z,23.04
2022-09-11T16:26:03.810Z,22.95
2022-09-11T16:28:31.778Z,22.88
2022-09-11T16:30:59.306Z,22.82
2022-09-11T16:33:26.857Z,22.77
2022-09-11T16:35:57.967Z,22.70
2022-09-11T16:38:27.023Z,22.66
2022-09-11T16:41:01.301Z,22.60
2022-09-11T16:43:28.865Z,22.55
2022-09-11T16:45:56.525Z,22.50
2022-09-11T16:48:25.358Z,22.45
2022-09-11T16:50:53.683Z,22.39
2022-09-11T16:53:21.726Z,22.33
2022-09-11T16:55:51.843Z,22.26
2022-09-11T16:58:19.360Z,22.20
2022-09-11T17:00:47.204Z,22.14
2022-09-11T17:03:15.057Z,22.09
2022-09-11T17:05:47.191Z,22.04
2022-09-11T17:08:14.763Z,21.99
2022-09-11T17:10:43.528Z,21.94
2022-09-11T17:13:12.664Z,21.88
2022-09-11T17:15:40.559Z,21.81
2022-09-11T17:18:08.070Z,21.75
2022-09-11T17:20:35.569Z,21.69
2022-09-11T17:23:04.093Z,21.61
2022-09-11T17:25:31.904Z,21.54
2022-09-11T17:27:59.878Z,21.46
2022-09-11T17:30:29.253Z,21.36
2022-09-11T17:32:57.313Z,21.29
2022-09-11T17:35:25.081Z,21.23
2022-09-11T17:37:52.694Z,21.14
2022-09-11T17:40:20.537Z,21.07
2022-09-11T17:42:48.665Z,20.97
2022-09-11T17:45:16.564Z,20.89
2022-09-11T17:47:45.444Z,20.80
2022-09-11T17:50:14.456Z,20.71
2022-09-11T17:52:42.207Z,20.62
2022-09-11T17:55:11.221Z,20.55
2022-09-11T17:57:42.262Z,20.47
2022-09-11T18:00:11.231Z,20.38
2022-09-11T18:02:41.853Z,20.30
2022-09-11T18:05:10.812Z,20.22
2022-09-11T18:07:39.065Z,20.12
2022-09-11T18:10:07.855Z,20.01
2022-09-11T18:12:36.114Z,19.92
2022-09-11T18:15:03.843Z,19.84
2022-09-11T18:17:31.966Z,19.75
2022-09-11T18:19:59.497Z,19.68
2022-09-11T18:22:29.762Z,19.58
2022-09-11T18:24:59.846Z,19.49
2022-09-11T18:27:27.528Z,19.38
2022-09-11T18:29:55.520Z,19.32
2022-09-11T18:32:22.978Z,19.22
2022-09-11T18:34:50.452Z,19.16
2022-09-11T18:37:18.176Z,19.07
2022-09-11T18:39:48.294Z,19.00
2022-09-11T18:42:17.983Z,18.92
2022-09-11T18:44:45.544Z,18.86
2022-09-11T18:47:13.032Z,18.80
2022-09-11T18:49:40.600Z,18.73
2022-09-11T18:52:08.762Z,18.67
2022-09-11T18:54:37.181Z,18.59
2022-09-11T18:57:06.164Z,18.54
2022-09-11T18:59:33.671Z,18.49
2022-09-11T19:02:01.354Z,18.44
2022-09-11T19:04:29.164Z,18.38
2022-09-11T19:06:56.707Z,18.32
2022-09-11T19:09:24.268Z,18.28
2022-09-11T19:11:53.858Z,18.22
2022-09-11T19:14:22.781Z,18.17
2022-09-11T19:16:50.515Z,18.13
2022-09-11T19:19:18.041Z,18.09
2022-09-11T19:21:45.538Z,18.05
2022-09-11T19:24:13.387Z,17.98
2022-09-11T19:26:42.291Z,17.94
2022-09-11T19:29:10.473Z,17.88
2022-09-11T19:31:39.780Z,17.82
2022-09-11T19:34:08.216Z,17.77
2022-09-11T19:36:36.548Z,17.72
2022-09-11T19:39:04.881Z,17.68
2022-09-11T19:41:33.661Z,17.64
2022-09-11T19:44:01.522Z,17.59
2022-09-11T19:46:29.780Z,17.54
2022-09-11T19:49:00.659Z,17.49
2022-09-11T19:51:29.392Z,17.45
2022-09-11T19:53:57.718Z,17.45
2022-09-11T19:56:25.994Z,17.45
2022-09-11T19:58:54.105Z,17.43
2022-09-11T20:01:23.696Z,17.40
2022-09-11T20:03:52.904Z,17.38
2022-09-11T20:06:22.917Z,17.36
2022-09-11T20:08:56.004Z,17.36
2022-09-11T20:11:35.786Z,17.33
2022-09-11T20:14:04.536Z,17.32
2022-09-11T20:16:32.387Z,17.28
2022-09-11T20:19:05.425Z,17.27
2022-09-11T20:21:35.359Z,17.25
2022-09-11T20:24:04.744Z,17.22
2022-09-11T20:26:32.399Z,17.20
2022-09-11T20:29:00.857Z,17.18
2022-09-11T20:31:29.794Z,17.17
2022-09-11T20:33:57.351Z,17.13
2022-09-11T20:36:27.072Z,17.10
2022-09-11T20:38:56.337Z,17.07
2022-09-11T20:41:24.840Z,17.03
2022-09-11T20:43:53.396Z,17.01
2022-09-11T20:46:21.221Z,17.00
2022-09-11T20:48:49.995Z,17.00
2022-09-11T20:51:17.612Z,16.99
2022-09-11T20:53:45.925Z,16.99
2022-09-11T20:56:15.795Z,16.97
2022-09-11T20:58:44.156Z,16.95
2022-09-11T21:01:13.058Z,16.95
2022-09-11T21:03:44.587Z,16.95
2022-09-11T21:06:12.182Z,16.94
2022-09-11T21:08:42.071Z,16.92
2022-09-11T21:11:10.003Z,16.91
2022-09-11T21:13:39.446Z,16.89
2022-09-11T21:16:08.062Z,16.87
2022-09-11T21:18:35.669Z,16.84
2022-09-11T21:21:03.168Z,16.83
2022-09-11T21:23:30.644Z,16.82
2022-09-11T21:25:58.237Z,16.80
2022-09-11T21:28:25.749Z,16.77
2022-09-11T21:30:54.608Z,16.76
2022-09-11T21:33:22.184Z,16.75
2022-09-11T21:35:53.470Z,16.72
2022-09-11T21:38:21.496Z,16.71
2022-09-11T21:40:49.025Z,16.70
2022-09-11T21:43:16.516Z,16.69
2022-09-11T21:45:44.012Z,16.68
2022-09-11T21:48:12.916Z,16.66
2022-09-11T21:50:40.455Z,16.64
2022-09-11T21:53:08.894Z,16.63
2022-09-11T21:55:37.900Z,16.62
2022-09-11T21:58:05.654Z,16.62
2022-09-11T22:00:37.471Z,16.61
2022-09-11T22:03:08.256Z,16.58
2022-09-11T22:05:39.576Z,16.56
2022-09-11T22:08:07.257Z,16.54
2022-09-11T22:10:34.746Z,16.53
2022-09-11T22:13:02.277Z,16.51
2022-09-11T22:15:29.765Z,16.51
2022-09-11T22:17:57.291Z,16.49
2022-09-11T22:20:24.859Z,16.47
2022-09-11T22:22:56.380Z,16.47
2022-09-11T22:25:23.863Z,16.45
2022-09-11T22:27:51.327Z,16.45
2022-09-11T22:30:18.872Z,16.44
2022-09-11T22:32:46.367Z,16.41
2022-09-11T22:35:14.915Z,16.40
2022-09-11T22:37:42.406Z,16.40
2022-09-11T22:40:12.567Z,16.40
2022-09-11T22:42:40.117Z,16.37
2022-09-11T22:45:08.098Z,16.36
2022-09-11T22:47:35.689Z,16.34
2022-09-11T22:50:03.337Z,16.33
2022-09-11T22:52:31.289Z,16.32
2022-09-11T22:54:58.781Z,16.30
2022-09-11T22:57:29.255Z,16.30
2022-09-11T22:59:57.018Z,16.31
2022-09-11T23:02:27.410Z,16.31
2022-09-11T23:05:08.816Z,16.31
2022-09-11T23:07:36.984Z,16.30
2022-09-11T23:10:04.608Z,16.29
2022-09-11T23:12:33.457Z,16.28
2022-09-11T23:15:02.968Z,16.28
2022-09-11T23:17:30.455Z,16.26
2022-09-11T23:19:57.974Z,16.26
2022-09-11T23:22:27.126Z,16.23
2022-09-11T23:24:54.626Z,16.20
2022-09-11T23:27:22.126Z,16.19
2022-09-11T23:29:50.977Z,16.17
2022-09-11T23:32:18.506Z,16.15
2022-09-11T23:34:45.963Z,16.13
2022-09-11T23:37:13.478Z,16.10
2022-09-11T23:39:40.979Z,16.09
2022-09-11T23:42:08.524Z,16.07
2022-09-11T23:44:36.016Z,16.03
2022-09-11T23:47:05.036Z,16.01
2022-09-11T23:49:36.129Z,15.98
2022-09-11T23:52:04.356Z,15.95
2022-09-11T23:54:31.869Z,15.94
2022-09-11T23:56:59.411Z,15.92
2022-09-11T23:59:26.925Z,15.91
